Time;durP1;ratioP1;P1;durP2;ratioP2;P2;SDS_P1;SDS_P2;PMS_P1;PMS_P2;Temp;Humidity;BMP_temperature;BMP_pressure;BME280_temperature;BME280_humidity;BME280_pressure;Samples;Min_cycle;Max_cycle;Signal;HPM_P1;HPM_P2
2022/01/04 00:01:26;;;;;;;3.78;1.27;;;;;;;5.47;100.00;95317.53;5042046;28;20043;-71
2022/01/04 00:03:51;;;;;;;2.17;0.80;;;;;;;5.50;100.00;95317.81;5042608;28;20493;-72
2022/01/04 00:06:17;;;;;;;4.32;1.10;;;;;;;5.54;100.00;95307.53;5040941;28;20104;-72
2022/01/04 00:08:42;;;;;;;4.93;1.30;;;;;;;5.58;100.00;95298.03;5042177;28;20041;-71
2022/01/04 00:11:15;;;;;;;4.22;1.50;;;;;;;5.63;100.00;95286.69;5043965;28;20375;-71
2022/01/04 00:13:41;;;;;;;3.22;1.20;;;;;;;5.66;100.00;95278.22;5050071;28;20343;-72
2022/01/04 00:16:07;;;;;;;4.90;1.27;;;;;;;5.62;100.00;95269.16;5047731;28;20040;-71
2022/01/04 00:18:34;;;;;;;2.30;0.93;;;;;;;5.67;100.00;95270.00;5046087;28;20032;-71
2022/01/04 00:21:00;;;;;;;2.08;0.82;;;;;;;5.73;100.00;95261.06;5046573;28;20139;-72
2022/01/04 00:23:26;;;;;;;1.92;0.90;;;;;;;5.76;100.00;95255.28;5046352;28;20563;-70
2022/01/04 00:25:52;;;;;;;4.38;1.05;;;;;;;5.77;100.00;95248.91;5046724;28;20263;-71
2022/01/04 00:28:18;;;;;;;4.40;0.95;;;;;;;5.77;100.00;95240.97;5045665;28;20359;-70
2022/01/04 00:30:44;;;;;;;2.78;1.05;;;;;;;5.66;100.00;95233.91;5028559;28;20075;-71
2022/01/04 00:33:13;;;;;;;2.47;1.10;;;;;;;5.72;100.00;95229.47;5046522;28;20029;-72
2022/01/04 00:35:42;;;;;;;;;;;;;;;5.76;100.00;95222.63;5045997;28;20446;-71
2022/01/04 00:38:07;;;;;;;2.53;0.90;;;;;;;5.78;100.00;95213.34;5044413;28;20325;-72
2022/01/04 00:40:33;;;;;;;1.85;0.80;;;;;;;5.76;100.00;95204.03;5020851;28;20037;-70
2022/01/04 00:42:59;;;;;;;3.92;1.10;;;;;;;5.72;100.00;95211.69;5045383;28;20106;-70
2022/01/04 00:45:31;;;;;;;2.60;0.90;;;;;;;5.57;100.00;95203.53;5045685;28;20047;-73
2022/01/04 00:50:30;;;;;;;3.35;1.10;;;;;;;5.36;100.00;95189.22;5046120;28;20442;-73
2022/01/04 00:52:59;;;;;;;5.03;1.20;;;;;;;5.26;100.00;95181.94;5045322;28;20345;-71
2022/01/04 00:55:26;;;;;;;7.07;1.23;;;;;;;5.16;100.00;95173.84;5044869;28;20045;-70
2022/01/04 00:57:52;;;;;;;4.90;1.58;;;;;;;5.11;100.00;95168.47;5044762;28;20037;-71
2022/01/04 01:00:18;;;;;;;4.97;1.60;;;;;;;5.03;100.00;95158.28;5045295;28;20507;-71
2022/01/04 01:02:44;;;;;;;7.43;2.90;;;;;;;5.08;100.00;95157.56;5045803;28;20051;-70
2022/01/04 01:05:10;;;;;;;7.38;2.30;;;;;;;5.15;100.00;95156.34;5046010;28;20387;-72
2022/01/04 01:07:36;;;;;;;4.00;1.70;;;;;;;5.24;100.00;95159.38;5045773;28;20036;-71
2022/01/04 01:10:38;;;;;;;3.58;1.35;;;;;;;5.31;100.00;95165.28;5045695;28;20526;-73
2022/01/04 01:13:03;;;;;;;4.55;1.23;;;;;;;5.39;100.00;95145.50;5045098;28;20463;-71
2022/01/04 01:15:29;;;;;;;5.13;1.65;;;;;;;5.31;100.00;95141.41;5045696;28;20082;-70
2022/01/04 01:17:54;;;;;;;2.97;1.45;;;;;;;5.27;100.00;95138.44;5044588;28;20474;-71
2022/01/04 01:20:20;;;;;;;3.22;1.60;;;;;;;5.18;100.00;95124.00;5045397;28;20045;-71
2022/01/04 01:22:46;;;;;;;4.93;1.48;;;;;;;4.98;100.00;95132.53;5044638;28;20474;-70
2022/01/04 01:25:13;;;;;;;2.80;1.38;;;;;;;4.90;100.00;95118.88;5043385;28;20032;-71
2022/01/04 01:27:40;;;;;;;4.22;1.63;;;;;;;4.87;100.00;95124.66;5043884;28;20420;-71
2022/01/04 01:30:07;;;;;;;3.83;1.50;;;;;;;4.86;100.00;95115.91;5044130;28;20310;-70
2022/01/04 01:32:32;;;;;;;4.35;1.35;;;;;;;4.89;100.00;95114.63;5044815;28;20049;-72
2022/01/04 01:34:58;;;;;;;4.45;1.20;;;;;;;4.87;100.00;95106.91;5044542;28;20341;-70
2022/01/04 01:37:23;;;;;;;3.00;1.20;;;;;;;4.83;100.00;95100.50;5044635;28;20045;-69
2022/01/04 01:39:48;;;;;;;3.05;1.30;;;;;;;4.80;100.00;95092.25;5044690;28;20051;-71
2022/01/04 01:42:14;;;;;;;5.07;1.45;;;;;;;4.84;100.00;95082.75;5043788;28;20037;-70
2022/01/04 01:44:40;;;;;;;3.85;1.60;;;;;;;4.82;100.00;95092.78;5044970;28;20052;-71
2022/01/04 01:47:05;;;;;;;5.15;1.58;;;;;;;4.79;100.00;95080.03;5043316;28;20414;-70
2022/01/04 01:49:31;;;;;;;3.47;1.60;;;;;;;4.85;100.00;95071.09;5043928;28;20033;-70
2022/01/04 01:51:57;;;;;;;4.30;1.73;;;;;;;4.75;100.00;95062.00;5043117;28;20049;-70
2022/01/04 01:54:23;;;;;;;3.45;1.40;;;;;;;4.74;100.00;95062.22;5024881;28;20037;-70
2022/01/04 01:56:50;;;;;;;3.53;1.63;;;;;;;4.81;100.00;95056.72;5043936;28;20462;-70
2022/01/04 01:59:15;;;;;;;5.32;1.50;;;;;;;4.74;100.00;95059.56;5043223;28;20045;-70
2022/01/04 02:01:42;;;;;;;6.13;1.75;;;;;;;4.81;100.00;95069.97;5044108;28;20480;-70
2022/01/04 02:04:08;;;;;;;4.63;1.55;;;;;;;4.80;100.00;95065.72;5043066;28;20021;-71
2022/01/04 02:06:34;;;;;;;3.97;1.42;;;;;;;4.75;100.00;95050.59;5043982;28;20029;-71
2022/01/04 02:09:00;;;;;;;2.75;1.23;;;;;;;4.79;100.00;95059.63;5044384;28;20048;-70
2022/01/04 02:11:30;;;;;;;4.68;1.30;;;;;;;4.78;100.00;95046.63;5041290;28;20166;-71
2022/01/04 02:14:14;;;;;;;3.75;1.30;;;;;;;4.74;100.00;95039.16;2965596;28;10003353;-70
2022/01/04 02:16:39;;;;;;;3.10;1.10;;;;;;;4.77;100.00;95037.88;2955108;28;10001479;-70
2022/01/04 02:19:06;;;;;;;2.15;0.85;;;;;;;4.79;100.00;95032.34;5043389;28;20518;-71
2022/01/04 02:21:36;;;;;;;4.93;1.27;;;;;;;4.84;100.00;95027.09;5043773;28;20121;-70
2022/01/04 02:24:03;;;;;;;2.47;1.00;;;;;;;4.95;100.00;95013.69;5023894;28;20291;-71
2022/01/04 02:26:30;;;;;;;7.38;2.35;;;;;;;4.94;100.00;95021.91;5042749;28;20120;-70
2022/01/04 02:28:58;;;;;;;3.83;1.30;;;;;;;4.95;100.00;95020.84;5043032;28;20403;-70
2022/01/04 02:31:24;;;;;;;2.58;0.93;;;;;;;5.01;100.00;95022.53;5043157;28;20033;-72
2022/01/04 02:33:50;;;;;;;2.72;1.08;;;;;;;5.06;100.00;95029.72;5044430;28;20064;-70
2022/01/04 02:36:16;;;;;;;2.58;1.20;;;;;;;5.04;100.00;95009.56;5042418;28;20471;-71
2022/01/04 02:38:41;;;;;;;3.78;1.30;;;;;;;5.00;100.00;95020.94;5043809;28;20368;-70
2022/01/04 02:41:07;;;;;;;2.47;1.00;;;;;;;5.10;100.00;95020.22;5044951;28;20061;-71
2022/01/04 02:43:32;;;;;;;2.20;1.20;;;;;;;5.20;100.00;95007.06;5044850;28;20067;-70
2022/01/04 02:45:58;;;;;;;2.75;1.10;;;;;;;5.25;100.00;95002.63;5043370;28;20049;-70
2022/01/04 02:48:23;;;;;;;2.92;1.23;;;;;;;5.34;100.00;94994.22;5042453;28;20444;-72
2022/01/04 02:50:53;;;;;;;2.40;1.00;;;;;;;5.40;100.00;94998.53;5043746;28;20043;-70
2022/01/04 02:53:18;;;;;;;4.57;1.08;;;;;;;5.45;100.00;94995.94;5043861;28;20099;-70
2022/01/04 02:55:45;;;;;;;3.10;1.15;;;;;;;5.48;100.00;94988.25;5043905;28;20052;-71
2022/01/04 02:58:11;;;;;;;3.90;1.15;;;;;;;5.49;100.00;94975.78;5043048;28;20215;-71
2022/01/04 03:00:37;;;;;;;4.78;1.20;;;;;;;5.50;100.00;94969.44;5044212;28;20219;-70
2022/01/04 03:03:03;;;;;;;3.88;0.90;;;;;;;5.53;100.00;94963.63;5043329;28;20045;-72
2022/01/04 03:05:28;;;;;;;2.42;1.00;;;;;;;5.52;100.00;94964.66;5043726;28;20546;-70
2022/01/04 03:07:54;;;;;;;3.60;0.98;;;;;;;5.54;100.00;94957.28;5042278;28;20048;-71
2022/01/04 03:10:19;;;;;;;2.15;0.88;;;;;;;5.55;100.00;94972.94;5041991;28;20064;-71
2022/01/04 03:12:45;;;;;;;2.58;1.10;;;;;;;5.53;100.00;94968.94;5044643;28;20033;-70
2022/01/04 03:15:12;;;;;;;9.13;1.20;;;;;;;5.52;100.00;94977.94;5043362;28;20048;-70
2022/01/04 03:17:38;;;;;;;3.38;1.20;;;;;;;5.49;100.00;94967.84;5043007;28;20063;-71
2022/01/04 03:20:05;;;;;;;3.85;1.20;;;;;;;5.51;100.00;94968.38;5043996;28;20024;-70
2022/01/04 03:22:30;;;;;;;2.05;0.73;;;;;;;5.52;100.00;94960.16;5042364;28;20047;-70
2022/01/04 03:24:56;;;;;;;2.50;1.00;;;;;;;5.56;100.00;94965.78;5042236;28;20037;-72
2022/01/04 03:27:21;;;;;;;4.40;1.38;;;;;;;5.59;100.00;94944.03;5043578;28;20041;-70
2022/01/04 03:29:47;;;;;;;3.03;1.23;;;;;;;5.58;100.00;94953.03;5042513;28;20504;-72
2022/01/04 03:32:12;;;;;;;3.38;1.20;;;;;;;5.60;100.00;94940.31;5025512;28;20440;-70
2022/01/04 03:34:38;;;;;;;3.03;1.20;;;;;;;5.57;100.00;94933.66;5045196;28;20412;-71
2022/01/04 03:37:04;;;;;;;5.88;1.40;;;;;;;5.57;100.00;94923.06;5044714;28;20041;-71
2022/01/04 03:39:30;;;;;;;5.47;1.50;;;;;;;5.56;100.00;94928.63;5043876;28;20402;-70
2022/01/04 03:41:56;;;;;;;2.65;1.05;;;;;;;5.55;100.00;94919.06;5045108;28;20048;-71
2022/01/04 03:44:21;;;;;;;3.40;1.30;;;;;;;5.59;100.00;94896.25;5042885;28;20045;-70
2022/01/04 03:46:48;;;;;;;3.38;1.55;;;;;;;5.53;100.00;94884.84;5042533;28;20047;-71
2022/01/04 03:49:14;;;;;;;3.70;1.50;;;;;;;5.57;100.00;94901.81;5042154;28;20072;-72
2022/01/04 03:51:40;;;;;;;21.13;1.63;;;;;;;5.55;100.00;94909.25;5043546;28;20057;-70
2022/01/04 03:54:05;;;;;;;3.60;1.20;;;;;;;5.54;100.00;94902.34;5042878;28;20094;-70
2022/01/04 03:56:31;;;;;;;39.80;2.40;;;;;;;5.55;100.00;94893.31;5042096;28;20388;-72
2022/01/04 03:58:56;;;;;;;3.22;1.40;;;;;;;5.54;100.00;94890.94;5042873;28;20094;-72
2022/01/04 04:01:22;;;;;;;16.02;1.52;;;;;;;5.57;100.00;94877.94;5042655;28;20115;-70
2022/01/04 04:03:47;;;;;;;6.32;1.55;;;;;;;5.55;100.00;94864.16;5022689;28;20386;-70
2022/01/04 04:06:13;;;;;;;151.30;3.67;;;;;;;5.43;100.00;94865.38;5040892;28;20198;-70
2022/01/04 04:08:39;;;;;;;105.93;2.83;;;;;;;5.40;100.00;94849.97;5041299;28;20497;-70
2022/01/04 04:11:05;;;;;;;30.30;1.90;;;;;;;5.42;100.00;94837.25;5041396;28;20110;-71
2022/01/04 04:13:31;;;;;;;4.43;2.25;;;;;;;5.39;100.00;94843.06;5043512;28;20036;-70
2022/01/04 04:15:56;;;;;;;2.65;1.35;;;;;;;5.43;100.00;94844.16;5041622;28;20637;-72
2022/01/04 04:18:21;;;;;;;22.63;1.60;;;;;;;5.45;100.00;94834.09;5042001;28;20102;-70
2022/01/04 04:20:47;;;;;;;162.30;3.78;;;;;;;5.46;100.00;94827.75;5042337;28;20083;-71
2022/01/04 04:23:13;;;;;;;184.50;3.92;;;;;;;5.48;100.00;94826.41;5040595;28;20037;-70
2022/01/04 04:25:39;;;;;;;120.72;3.20;;;;;;;5.49;100.00;94827.22;5041264;28;20109;-70
2022/01/04 04:28:04;;;;;;;158.32;3.63;;;;;;;5.51;100.00;94828.53;5041515;28;20060;-72
2022/01/04 04:30:30;;;;;;;250.52;5.45;;;;;;;5.46;100.00;94820.56;5041492;28;20516;-71
2022/01/04 04:32:56;;;;;;;275.83;6.28;;;;;;;5.49;100.00;94825.34;5042162;28;20044;-71
2022/01/04 04:35:21;;;;;;;11.88;1.80;;;;;;;5.49;100.00;94821.91;5042810;28;20039;-71
2022/01/04 04:37:47;;;;;;;143.57;4.53;;;;;;;5.50;100.00;94818.19;5042137;28;20404;-71
2022/01/04 04:40:13;;;;;;;118.43;3.90;;;;;;;5.48;100.00;94812.34;5040989;28;20369;-71
2022/01/04 04:42:39;;;;;;;11.00;4.18;;;;;;;5.48;100.00;94804.41;5042864;28;20049;-71
2022/01/04 04:45:06;;;;;;;52.10;3.65;;;;;;;5.46;100.00;94796.69;5043255;28;20045;-70
2022/01/04 04:47:31;;;;;;;63.65;12.55;;;;;;;5.41;100.00;94803.81;5042867;28;20531;-72
2022/01/04 04:49:57;;;;;;;53.47;8.27;;;;;;;5.39;100.00;94801.44;5042294;28;20112;-70
2022/01/04 04:52:23;;;;;;;126.35;8.30;;;;;;;5.38;100.00;94791.88;5042856;28;20044;-70
2022/01/04 04:54:48;;;;;;;64.55;3.38;;;;;;;5.36;100.00;94790.50;5042929;28;20043;-71
2022/01/04 04:57:14;;;;;;;253.00;6.50;;;;;;;5.39;100.00;94797.97;5042917;28;20412;-72
2022/01/04 04:59:40;;;;;;;245.73;8.55;;;;;;;5.34;100.00;94789.97;5046400;28;20041;-72
2022/01/04 05:02:07;;;;;;;12.45;1.98;;;;;;;5.26;100.00;94791.25;5044366;28;20119;-71
2022/01/04 05:04:36;;;;;;;43.92;12.02;;;;;;;5.22;100.00;94780.38;5045218;28;20557;-71
2022/01/04 05:07:02;;;;;;;80.30;21.58;;;;;;;5.19;100.00;94778.22;5044464;28;20034;-72
2022/01/04 05:09:28;;;;;;;32.03;11.68;;;;;;;5.18;100.00;94779.28;5046260;28;20364;-70
2022/01/04 05:11:54;;;;;;;31.10;11.50;;;;;;;5.14;100.00;94767.59;5045209;28;20029;-72
2022/01/04 05:14:20;;;;;;;66.80;20.95;;;;;;;5.14;100.00;94761.50;5045093;28;20167;-70
2022/01/04 05:16:45;;;;;;;39.50;16.20;;;;;;;5.13;100.00;94759.88;5045904;28;20638;-70
2022/01/04 05:19:11;;;;;;;21.55;9.65;;;;;;;5.10;100.00;94757.72;5045238;28;20352;-70
2022/01/04 05:21:36;;;;;;;18.30;8.15;;;;;;;5.08;100.00;94763.28;5045001;28;20020;-70
2022/01/04 05:24:02;;;;;;;14.82;5.90;;;;;;;5.06;100.00;94759.28;5044460;28;20539;-71
2022/01/04 05:26:28;;;;;;;7.53;3.67;;;;;;;5.02;100.00;94748.41;5044060;28;20033;-70
2022/01/04 05:28:56;;;;;;;8.25;4.82;;;;;;;5.05;100.00;94750.53;5044225;28;20045;-70
2022/01/04 05:31:21;;;;;;;7.78;4.05;;;;;;;5.07;100.00;94750.31;5043595;28;20073;-70
2022/01/04 05:33:47;;;;;;;6.78;3.38;;;;;;;5.07;100.00;94740.50;5045294;28;20420;-70
2022/01/04 05:36:12;;;;;;;7.00;3.40;;;;;;;5.09;100.00;94738.38;5043252;28;20080;-70
2022/01/04 05:38:38;;;;;;;6.80;3.58;;;;;;;5.12;100.00;94737.84;5044473;28;20490;-71
2022/01/04 05:41:03;;;;;;;6.90;3.80;;;;;;;5.14;100.00;94737.63;5043120;28;20040;-71
2022/01/04 05:43:29;;;;;;;6.85;4.45;;;;;;;5.13;100.00;94734.16;5045325;28;20040;-71
2022/01/04 05:45:54;;;;;;;6.95;4.15;;;;;;;5.16;100.00;94724.91;5044756;28;20048;-72
2022/01/04 05:48:21;;;;;;;4.35;2.30;;;;;;;5.11;100.00;94720.34;5044169;28;20041;-72
2022/01/04 05:50:49;;;;;;;4.82;2.42;;;;;;;5.17;100.00;94727.28;5043386;28;20068;-70
2022/01/04 05:53:15;;;;;;;4.22;2.50;;;;;;;5.17;100.00;94719.34;5044295;28;20041;-70
2022/01/04 05:55:40;;;;;;;3.58;1.75;;;;;;;5.19;100.00;94721.72;5044607;28;20215;-69
2022/01/04 05:58:06;;;;;;;4.45;1.80;;;;;;;5.20;100.00;94710.84;5043361;28;20138;-70
2022/01/04 06:00:31;;;;;;;3.47;1.40;;;;;;;5.24;100.00;94717.25;5044048;28;20048;-70
2022/01/04 06:03:00;;;;;;;6.18;2.47;;;;;;;5.13;100.00;94710.28;5044353;28;20044;-70
2022/01/04 06:05:26;;;;;;;6.85;2.10;;;;;;;5.12;100.00;94715.84;5042340;28;20029;-70
2022/01/04 06:07:52;;;;;;;4.50;1.83;;;;;;;5.16;100.00;94712.44;5043432;28;20132;-71
2022/01/04 06:10:17;;;;;;;4.20;1.90;;;;;;;5.14;100.00;94708.47;5043381;28;20116;-70
2022/01/04 06:15:11;;;;;;;2.08;0.90;;;;;;;5.10;100.00;94708.16;5043970;28;20487;-71
2022/01/04 06:17:41;;;;;;;2.22;0.90;;;;;;;5.13;100.00;94698.88;5044210;28;20048;-70
2022/01/04 06:20:12;;;;;;;3.20;0.70;;;;;;;5.13;100.00;94712.94;5044513;28;20468;-70
2022/01/04 06:22:38;;;;;;;1.65;0.57;;;;;;;5.17;100.00;94702.63;5044550;28;20090;-71
2022/01/04 06:25:07;;;;;;;2.90;1.00;;;;;;;5.20;100.00;94705.56;5043038;28;20036;-71
2022/01/04 06:27:33;;;;;;;2.28;0.77;;;;;;;5.20;100.00;94702.09;5044391;28;20045;-70
2022/01/04 06:30:00;;;;;;;1.20;0.50;;;;;;;5.12;100.00;94703.38;5044091;28;20542;-72
2022/01/04 06:32:26;;;;;;;1.83;0.60;;;;;;;5.11;100.00;94701.78;5043412;28;20357;-70
2022/01/04 06:34:52;;;;;;;1.50;0.60;;;;;;;5.06;100.00;94704.44;5045310;28;20086;-71
2022/01/04 06:37:18;;;;;;;3.60;0.55;;;;;;;5.08;100.00;94704.97;5044255;28;20396;-71
2022/01/04 06:39:44;;;;;;;2.60;1.40;;;;;;;5.08;100.00;94709.47;5045476;28;20029;-72
2022/01/04 06:42:11;;;;;;;1.50;0.77;;;;;;;5.09;100.00;94706.56;5024971;28;20040;-70
2022/01/04 06:44:37;;;;;;;2.00;0.98;;;;;;;5.07;100.00;94698.06;5043741;28;20041;-70
2022/01/04 06:47:03;;;;;;;2.05;0.85;;;;;;;5.07;100.00;94695.41;5028375;28;20037;-72
2022/01/04 06:49:29;;;;;;;2.92;1.67;;;;;;;5.04;100.00;94691.41;5048167;28;20039;-71
2022/01/04 06:51:54;;;;;;;3.15;1.48;;;;;;;5.07;100.00;94692.78;5047506;28;20045;-72
2022/01/04 06:54:20;;;;;;;3.25;1.42;;;;;;;5.06;100.00;94685.88;5045240;28;20048;-71
2022/01/04 06:56:47;;;;;;;2.50;1.02;;;;;;;5.06;100.00;94685.88;5041869;28;20052;-72
2022/01/04 06:59:13;;;;;;;3.45;0.90;;;;;;;5.05;100.00;94684.25;5043724;28;20052;-71
2022/01/04 07:01:38;;;;;;;4.60;1.75;;;;;;;5.03;100.00;94667.81;5024464;28;20049;-71
2022/01/04 07:04:05;;;;;;;2.95;1.27;;;;;;;4.89;100.00;94664.81;5044219;28;20044;-71
2022/01/04 07:06:32;;;;;;;3.35;1.20;;;;;;;4.91;100.00;94664.56;5043746;28;20419;-72
2022/01/04 07:08:58;;;;;;;3.78;0.77;;;;;;;4.89;100.00;94667.47;5044236;28;20469;-71
2022/01/04 07:11:23;;;;;;;2.20;0.70;;;;;;;4.94;100.00;94661.41;5043717;28;20073;-72
2022/01/04 07:13:49;;;;;;;3.25;0.70;;;;;;;4.95;100.00;94653.19;5045112;28;20037;-70
2022/01/04 07:16:15;;;;;;;1.55;0.70;;;;;;;4.97;100.00;94647.63;5042156;28;20040;-70
2022/01/04 07:18:40;;;;;;;2.38;0.80;;;;;;;4.99;100.00;94651.63;5042974;28;20045;-72
2022/01/04 07:21:06;;;;;;;3.20;0.95;;;;;;;4.95;100.00;94658.50;5041479;28;20094;-70
2022/01/04 07:23:32;;;;;;;1.27;0.60;;;;;;;4.89;100.00;94658.72;5042221;28;20064;-71
2022/01/04 07:25:57;;;;;;;1.38;0.50;;;;;;;4.91;100.00;94649.47;5040940;28;20043;-70
2022/01/04 07:28:23;;;;;;;2.63;0.52;;;;;;;4.90;100.00;94649.69;5041813;28;20033;-71
2022/01/04 07:30:49;;;;;;;3.25;0.73;;;;;;;4.90;100.00;94644.41;5042554;28;20044;-71
2022/01/04 07:33:17;;;;;;;1.23;0.60;;;;;;;4.93;100.00;94630.66;5044088;28;20094;-71
2022/01/04 07:35:43;;;;;;;2.00;0.70;;;;;;;4.93;100.00;94634.09;5043921;28;20469;-70
2022/01/04 07:38:09;;;;;;;2.13;0.50;;;;;;;4.94;100.00;94629.59;5043913;28;20086;-70
2022/01/04 07:40:34;;;;;;;1.02;0.50;;;;;;;4.95;100.00;94628.53;5043413;28;20056;-70
2022/01/04 07:43:00;;;;;;;1.48;0.50;;;;;;;4.93;100.00;94625.34;5043274;28;20477;-71
2022/01/04 07:45:35;;;;;;;0.95;0.40;;;;;;;4.90;100.00;94629.31;5043503;28;20065;-71
2022/01/04 07:48:01;;;;;;;2.25;0.57;;;;;;;4.90;100.00;94621.38;5042566;28;20037;-70
2022/01/04 07:50:27;;;;;;;0.90;0.50;;;;;;;4.89;100.00;94619.75;5043618;28;20094;-72
2022/01/04 07:52:53;;;;;;;1.23;0.50;;;;;;;4.92;100.00;94626.41;5044208;28;20049;-70
2022/01/04 07:55:19;;;;;;;3.53;1.02;;;;;;;4.86;100.00;94620.28;5043356;28;20041;-71
2022/01/04 07:57:45;;;;;;;4.30;1.00;;;;;;;4.89;100.00;94621.59;5043008;28;20112;-71
2022/01/04 08:00:14;;;;;;;2.30;0.68;;;;;;;4.93;100.00;94623.50;5043841;28;20116;-70
2022/01/04 08:02:41;;;;;;;4.40;0.98;;;;;;;4.88;100.00;94622.66;5042682;28;20067;-71
2022/01/04 08:05:08;;;;;;;1.55;0.60;;;;;;;4.88;100.00;94628.75;5043700;28;20033;-70
2022/01/04 08:07:34;;;;;;;1.52;0.60;;;;;;;4.91;100.00;94630.91;5042603;28;20063;-70
2022/01/04 08:09:59;;;;;;;5.32;0.60;;;;;;;4.91;100.00;94628.25;5041238;28;20037;-71
2022/01/04 08:12:25;;;;;;;3.65;1.58;;;;;;;4.86;100.00;94627.44;5044433;28;20334;-70
2022/01/04 08:14:51;;;;;;;6.85;1.70;;;;;;;4.72;100.00;94632.38;5045534;28;20030;-70
2022/01/04 08:17:17;;;;;;;4.13;1.70;;;;;;;4.69;100.00;94623.09;5043619;28;20314;-71
2022/01/04 08:19:42;;;;;;;2.67;0.70;;;;;;;4.77;100.00;94628.97;5044312;28;20138;-70
2022/01/04 08:22:08;;;;;;;3.17;0.50;;;;;;;4.80;100.00;94633.75;5043424;28;20040;-70
2022/01/04 08:24:34;;;;;;;2.33;0.75;;;;;;;4.78;100.00;94623.41;5044636;28;20060;-72
2022/01/04 08:27:00;;;;;;;1.33;0.50;;;;;;;4.80;100.00;94628.44;5041578;28;20037;-71
2022/01/04 08:29:26;;;;;;;2.10;0.90;;;;;;;4.81;100.00;94624.75;5044115;28;20463;-72
2022/01/04 08:31:51;;;;;;;6.43;4.78;;;;;;;4.80;100.00;94629.25;5044466;28;20052;-71
2022/01/04 08:34:17;;;;;;;4.35;2.55;;;;;;;4.81;100.00;94627.41;5047416;28;20040;-70
2022/01/04 08:36:42;;;;;;;4.32;1.85;;;;;;;4.76;100.00;94622.88;5046303;28;20047;-70
2022/01/04 08:39:14;;;;;;;3.38;1.65;;;;;;;4.75;100.00;94624.72;5046425;28;20079;-70
2022/01/04 08:41:41;;;;;;;3.65;1.73;;;;;;;4.74;100.00;94632.91;5046933;28;20079;-70
2022/01/04 08:44:08;;;;;;;5.68;1.77;;;;;;;4.75;100.00;94627.38;5031587;28;20044;-70
2022/01/04 08:46:35;;;;;;;4.30;1.67;;;;;;;4.74;100.00;94625.75;5045216;28;20127;-72
2022/01/04 08:49:03;;;;;;;3.80;1.83;;;;;;;4.75;100.00;94613.34;5047233;28;20044;-70
2022/01/04 08:51:29;;;;;;;3.63;1.67;;;;;;;4.78;100.00;94614.66;5047349;28;20075;-70
2022/01/04 08:53:54;;;;;;;3.65;1.70;;;;;;;4.79;100.00;94616.25;5046533;28;20083;-70
2022/01/04 08:56:20;;;;;;;4.78;2.08;;;;;;;4.75;100.00;94611.47;5047132;28;20451;-71
2022/01/04 08:58:45;;;;;;;5.00;2.20;;;;;;;4.75;100.00;94616.78;5045972;28;20056;-71
2022/01/04 09:01:11;;;;;;;8.82;2.85;;;;;;;4.81;100.00;94612.28;5045783;28;20040;-71
2022/01/04 09:03:36;;;;;;;120.30;4.50;;;;;;;4.85;100.00;94609.94;5045771;28;20033;-71
2022/01/04 09:06:02;;;;;;;5.68;2.40;;;;;;;4.87;100.00;94613.13;5045724;28;20032;-71
2022/01/04 09:08:30;;;;;;;5.13;1.98;;;;;;;4.90;100.00;94613.41;5047099;28;20091;-71
2022/01/04 09:10:55;;;;;;;5.90;2.08;;;;;;;4.88;100.00;94606.75;5043690;28;20044;-70
2022/01/04 09:13:22;;;;;;;5.60;2.40;;;;;;;4.90;100.00;94610.78;5046158;28;20028;-70
2022/01/04 09:18:43;;;;;;;6.45;2.80;;;;;;;4.93;100.00;94612.91;5046305;28;20387;-70
2022/01/04 09:18:46;;;;;;;6.00;2.75;;;;;;;4.92;100.00;94603.34;5045337;28;20045;-71
2022/01/04 09:21:18;;;;;;;5.65;2.63;;;;;;;4.94;100.00;94611.03;5028383;28;20439;-71
2022/01/04 09:23:45;;;;;;;6.78;2.83;;;;;;;4.97;100.00;94598.06;5047018;28;20032;-70
2022/01/04 09:26:12;;;;;;;7.30;3.47;;;;;;;4.96;100.00;94612.38;5043509;28;20020;-72
2022/01/04 09:28:37;;;;;;;5.65;2.88;;;;;;;4.98;100.00;94612.09;5045169;28;20064;-70
2022/01/04 09:31:03;;;;;;;6.28;3.22;;;;;;;4.92;100.00;94615.81;5044464;28;20036;-71
2022/01/04 09:33:29;;;;;;;5.88;3.25;;;;;;;4.96;100.00;94619.53;5045871;28;20033;-70
2022/01/04 09:35:55;;;;;;;5.53;2.95;;;;;;;4.99;100.00;94621.69;5046190;28;20048;-70
2022/01/04 09:38:20;;;;;;;5.78;2.47;;;;;;;4.98;100.00;94625.34;5046226;28;20127;-70
2022/01/04 09:40:49;;;;;;;6.32;2.53;;;;;;;4.98;100.00;94630.66;5046510;28;20513;-71
2022/01/04 09:43:15;;;;;;;4.68;2.50;;;;;;;4.99;100.00;94634.94;5045765;28;20029;-71
2022/01/04 09:45:41;;;;;;;5.70;3.33;;;;;;;4.99;100.00;94637.59;5045851;28;20123;-70
2022/01/04 09:48:07;;;;;;;6.90;3.20;;;;;;;4.99;100.00;94627.78;5044415;28;20603;-70
2022/01/04 09:50:35;;;;;;;5.72;2.50;;;;;;;4.94;100.00;94629.59;5046478;28;20045;-72
2022/01/04 09:53:02;;;;;;;5.00;2.45;;;;;;;4.89;100.00;94633.00;5046246;28;20078;-70
2022/01/04 09:55:27;;;;;;;5.95;2.00;;;;;;;4.89;100.00;94634.84;5030533;28;20033;-70
2022/01/04 09:57:53;;;;;;;5.22;2.17;;;;;;;4.89;100.00;94640.16;5028691;28;20381;-70
2022/01/04 10:00:18;;;;;;;6.80;2.70;;;;;;;4.84;100.00;94634.84;5047362;28;20140;-70
2022/01/04 10:02:47;;;;;;;6.50;2.80;;;;;;;4.87;100.00;94634.31;5046654;28;20060;-71
2022/01/04 10:05:15;;;;;;;4.93;2.47;;;;;;;4.87;100.00;94634.31;5045568;28;20048;-70
2022/01/04 10:07:42;;;;;;;4.95;2.40;;;;;;;4.85;100.00;94633.78;5046145;28;20043;-70
2022/01/04 10:10:15;;;;;;;4.60;2.42;;;;;;;4.83;100.00;94638.56;5046884;28;20143;-70
2022/01/04 10:12:53;;;;;;;5.38;2.10;;;;;;;4.79;100.00;94635.59;5045307;28;20039;-71
2022/01/04 10:15:30;;;;;;;4.10;1.88;;;;;;;4.79;100.00;94624.22;5046532;28;20495;-70
2022/01/04 10:17:56;;;;;;;6.43;2.40;;;;;;;4.79;100.00;94616.25;5044496;28;20477;-71
2022/01/04 10:20:22;;;;;;;4.80;2.55;;;;;;;4.76;100.00;94622.88;5046444;28;20502;-70
2022/01/04 10:22:50;;;;;;;4.70;2.42;;;;;;;4.81;100.00;94630.03;5044170;28;20045;-70
2022/01/04 10:25:19;;;;;;;4.50;2.28;;;;;;;4.75;100.00;94623.94;5026528;28;20043;-70
2022/01/04 10:27:51;;;;;;;3.55;2.03;;;;;;;4.74;100.00;94615.16;5044739;28;20037;-70
2022/01/04 10:30:44;;;;;;;3.90;1.75;;;;;;;4.72;100.00;94619.13;5043340;28;20045;-70
2022/01/04 10:33:19;;;;;;;3.40;1.55;;;;;;;4.69;100.00;94612.50;5042271;28;20109;-70
2022/01/04 10:35:53;;;;;;;3.17;1.50;;;;;;;4.71;100.00;94607.72;5043390;28;20036;-70
2022/01/04 10:38:38;;;;;;;6.05;1.38;;;;;;;4.71;100.00;94631.59;5042628;28;20045;-70
2022/01/04 10:41:15;;;;;;;4.03;1.40;;;;;;;4.71;100.00;94631.59;5041312;28;20422;-70
2022/01/04 10:43:45;;;;;;;2.65;0.98;;;;;;;4.70;100.00;94619.38;5041657;28;20128;-71
2022/01/04 10:46:13;;;;;;;2.33;1.05;;;;;;;4.67;100.00;94619.91;5042642;28;20364;-71
2022/01/04 10:48:50;;;;;;;5.88;1.10;;;;;;;4.68;100.00;94613.56;5041442;28;20037;-71
2022/01/04 10:51:21;;;;;;;3.83;1.20;;;;;;;4.72;100.00;94604.03;5043224;28;20072;-70
2022/01/04 10:53:49;;;;;;;1.65;0.70;;;;;;;4.75;100.00;94608.84;5040628;28;20040;-70
2022/01/04 10:56:22;;;;;;;4.95;0.90;;;;;;;4.77;100.00;94602.47;5041930;28;20379;-71
2022/01/04 10:58:50;;;;;;;2.05;0.70;;;;;;;4.83;100.00;94599.59;5045102;28;20068;-71
2022/01/04 11:01:20;;;;;;;2.15;0.80;;;;;;;4.88;100.00;94604.09;5044464;28;20037;-71
2022/01/04 11:03:48;;;;;;;1.80;0.70;;;;;;;4.91;100.00;94615.00;5044634;28;20487;-71
2022/01/04 11:06:18;;;;;;;1.83;0.68;;;;;;;4.94;100.00;94609.19;5043740;28;20036;-70
2022/01/04 11:08:44;;;;;;;1.73;0.73;;;;;;;4.99;100.00;94605.78;5043745;28;20127;-70
2022/01/04 11:11:10;;;;;;;2.03;0.60;;;;;;;4.93;100.00;94610.25;5042890;28;20548;-70
2022/01/04 11:13:36;;;;;;;2.33;0.82;;;;;;;4.93;100.00;94614.75;5043827;28;20036;-70
2022/01/04 11:16:03;;;;;;;2.55;0.77;;;;;;;4.89;100.00;94611.78;5044221;28;20064;-70
2022/01/04 11:18:33;;;;;;;3.17;0.82;;;;;;;4.89;100.00;94611.00;5044158;28;20048;-70
2022/01/04 11:21:00;;;;;;;1.90;0.70;;;;;;;4.90;100.00;94612.59;5043590;28;20488;-70
2022/01/04 11:23:29;;;;;;;2.17;0.98;;;;;;;4.84;100.00;94608.34;5042636;28;20040;-70
2022/01/04 11:25:55;;;;;;;3.17;0.95;;;;;;;4.90;100.00;94618.72;5043688;28;20036;-71
2022/01/04 11:28:22;;;;;;;3.65;1.27;;;;;;;4.95;100.00;94616.06;5044376;28;20052;-70
2022/01/04 11:31:15;;;;;;;3.13;1.00;;;;;;;5.00;100.00;94610.00;5041966;28;20136;-71
2022/01/04 11:33:59;;;;;;;3.10;1.17;;;;;;;5.05;100.00;94607.38;5042282;28;20040;-71
2022/01/04 11:36:26;;;;;;;3.88;1.13;;;;;;;5.09;100.00;94613.75;5043582;28;20110;-71